Bea Schulte — VRGA2 — position and weather

sailwx.info

Track history (hours):
 
Tides and Currents Weather Stations Pressure Air Temp Water Temp Dewpoint Dewpoint Depression Visibility Wind Speed Wind Dir Waves Ship Positions

Bea Schulte

Last reported at 2017-Apr-27 01:25 UTC. Time now 2017-Apr-28 08:19 UTC.
Position S 25°23' W 046°53'.

Length 264 m; draft 9.2 m.

Type: Ship (hazmat cat A). MMSI: 477639500.

Date/timePositionNaut miles runAvg speedWind from/ knotsBaromVisibWave heightAir tempDewpointWater temp
2017-Apr-27 01:25S 25°23' W 046°53'3515.2
2017-Apr-26 23:05S 24°50' W 046°40'112.5
2017-Apr-26 23:00S 24°49' W 046°40'612.8
2017-Apr-26 22:30S 24°43' W 046°37'713.1
2017-Apr-26 22:00S 24°37' W 046°35'713.2
2017-Apr-26 21:30S 24°31' W 046°32'613.0
2017-Apr-26 21:00S 24°25' W 046°30'612.9
2017-Apr-26 20:30S 24°19' W 046°27'612.7
2017-Apr-26 20:00S 24°13' W 046°25'612.7
2017-Apr-26 19:30S 24°07' W 046°23'612.3
2017-Apr-26 19:01S 24°01' W 046°20'4 7.2
2017-Apr-26 18:30S 23°59' W 046°17'1 0.3
2017-Apr-26 15:53S 23°58' W 046°18'0 0.0
2017-Apr-26 15:23S 23°58' W 046°18'0 0.0
2017-Apr-26 14:59S 23°58' W 046°18'0 0.0
2017-Apr-26 03:34S 23°58' W 046°18'0 0.0
2017-Apr-26 03:22S 23°58' W 046°18'1 0.2
2017-Apr-25 21:00S 23°59' W 046°18'4 8.4
2017-Apr-25 20:30S 24°02' W 046°21'510.7
2017-Apr-25 20:00S 24°07' W 046°22'510.5
2017-Apr-25 19:30S 24°13' W 046°22'1 1.2
2017-Apr-25 19:01S 24°13' W 046°22'3 5.7
2017-Apr-25 18:31S 24°15' W 046°19'611.4
2017-Apr-25 18:01S 24°15' W 046°13'612.0
2017-Apr-25 17:29S 24°15' W 046°06'6 5.7
2017-Apr-25 16:27S 24°14' W 045°60'2 4.3
2017-Apr-25 16:01S 24°15' W 045°58'612.5
2017-Apr-25 15:30S 24°15' W 045°51'713.9
2017-Apr-25 15:00S 24°15' W 045°43'  
Track history (hours):
 
Tides and Currents Weather Stations Pressure Air Temp Water Temp Dewpoint Dewpoint Depression Visibility Wind Speed Wind Dir Waves Ship Positions

Bea Schulte

Last reported at 2017-Apr-27 01:25 UTC. Time now 2017-Apr-28 08:19 UTC.
Position S 25°23' W 046°53'.

Length 264 m; draft 9.2 m.

Type: Ship (hazmat cat A). MMSI: 477639500.

Date/timePositionNaut miles runAvg speedWind from/ knotsBaromVisibWave heightAir tempDewpointWater temp
2017-Apr-27 01:25S 25°23' W 046°53'3515.2
2017-Apr-26 23:05S 24°50' W 046°40'112.5
2017-Apr-26 23:00S 24°49' W 046°40'612.8
2017-Apr-26 22:30S 24°43' W 046°37'713.1
2017-Apr-26 22:00S 24°37' W 046°35'713.2
2017-Apr-26 21:30S 24°31' W 046°32'613.0
2017-Apr-26 21:00S 24°25' W 046°30'612.9
2017-Apr-26 20:30S 24°19' W 046°27'612.7
2017-Apr-26 20:00S 24°13' W 046°25'612.7
2017-Apr-26 19:30S 24°07' W 046°23'612.3
2017-Apr-26 19:01S 24°01' W 046°20'4 7.2
2017-Apr-26 18:30S 23°59' W 046°17'1 0.3
2017-Apr-26 15:53S 23°58' W 046°18'0 0.0
2017-Apr-26 15:23S 23°58' W 046°18'0 0.0
2017-Apr-26 14:59S 23°58' W 046°18'0 0.0
2017-Apr-26 03:34S 23°58' W 046°18'0 0.0
2017-Apr-26 03:22S 23°58' W 046°18'1 0.2
2017-Apr-25 21:00S 23°59' W 046°18'4 8.4
2017-Apr-25 20:30S 24°02' W 046°21'510.7
2017-Apr-25 20:00S 24°07' W 046°22'510.5
2017-Apr-25 19:30S 24°13' W 046°22'1 1.2
2017-Apr-25 19:01S 24°13' W 046°22'3 5.7
2017-Apr-25 18:31S 24°15' W 046°19'611.4
2017-Apr-25 18:01S 24°15' W 046°13'612.0
2017-Apr-25 17:29S 24°15' W 046°06'6 5.7
2017-Apr-25 16:27S 24°14' W 045°60'2 4.3
2017-Apr-25 16:01S 24°15' W 045°58'612.5
2017-Apr-25 15:30S 24°15' W 045°51'713.9
2017-Apr-25 15:00S 24°15' W 045°43'  

Dump ship's entire track history